sensor_id;sensor_type;location;lat;lon;timestamp;P1;durP1;ratioP1;P2;durP2;ratioP2
36789;SDS011;22740;52.182;8.780;2023-02-28T00:01:51;3.05;;;1.60;;
36789;SDS011;22740;52.182;8.780;2023-02-28T00:07:53;3.85;;;2.35;;
36789;SDS011;22740;52.182;8.780;2023-02-28T00:13:56;4.80;;;2.22;;
36789;SDS011;22740;52.182;8.780;2023-02-28T00:19:58;5.63;;;2.33;;
36789;SDS011;22740;52.182;8.780;2023-02-28T00:26:03;6.00;;;2.78;;
36789;SDS011;22740;52.182;8.780;2023-02-28T00:32:06;6.47;;;2.80;;
36789;SDS011;22740;52.182;8.780;2023-02-28T00:38:08;3.80;;;2.17;;
36789;SDS011;22740;52.182;8.780;2023-02-28T00:44:10;5.97;;;2.83;;
36789;SDS011;22740;52.182;8.780;2023-02-28T00:50:12;6.75;;;3.03;;
36789;SDS011;22740;52.182;8.780;2023-02-28T00:56:14;6.13;;;2.42;;
36789;SDS011;22740;52.182;8.780;2023-02-28T01:02:16;6.93;;;2.97;;
36789;SDS011;22740;52.182;8.780;2023-02-28T01:08:19;6.88;;;2.88;;
36789;SDS011;22740;52.182;8.780;2023-02-28T01:14:21;7.30;;;2.85;;
36789;SDS011;22740;52.182;8.780;2023-02-28T01:20:23;6.90;;;2.80;;
36789;SDS011;22740;52.182;8.780;2023-02-28T01:26:25;6.78;;;2.70;;
36789;SDS011;22740;52.182;8.780;2023-02-28T01:32:27;6.60;;;2.75;;
36789;SDS011;22740;52.182;8.780;2023-02-28T01:38:29;5.25;;;2.83;;
36789;SDS011;22740;52.182;8.780;2023-02-28T01:50:59;5.47;;;2.30;;
36789;SDS011;22740;52.182;8.780;2023-02-28T01:57:08;6.32;;;2.38;;
36789;SDS011;22740;52.182;8.780;2023-02-28T02:03:16;5.07;;;2.50;;
36789;SDS011;22740;52.182;8.780;2023-02-28T02:09:21;5.47;;;2.83;;
36789;SDS011;22740;52.182;8.780;2023-02-28T02:15:26;5.53;;;2.22;;
36789;SDS011;22740;52.182;8.780;2023-02-28T02:40:38;8.43;;;2.38;;
36789;SDS011;22740;52.182;8.780;2023-02-28T02:46:47;5.15;;;2.20;;
36789;SDS011;22740;52.182;8.780;2023-02-28T02:52:52;4.90;;;2.20;;
36789;SDS011;22740;52.182;8.780;2023-02-28T02:59:02;5.18;;;2.30;;
36789;SDS011;22740;52.182;8.780;2023-02-28T03:05:09;4.72;;;2.00;;
36789;SDS011;22740;52.182;8.780;2023-02-28T03:11:18;4.50;;;2.00;;
36789;SDS011;22740;52.182;8.780;2023-02-28T03:17:28;7.32;;;2.55;;
36789;SDS011;22740;52.182;8.780;2023-02-28T03:23:58;4.65;;;2.17;;
36789;SDS011;22740;52.182;8.780;2023-02-28T03:30:22;4.35;;;2.00;;
36789;SDS011;22740;52.182;8.780;2023-02-28T03:36:32;5.13;;;2.00;;
36789;SDS011;22740;52.182;8.780;2023-02-28T03:42:47;4.85;;;1.70;;
36789;SDS011;22740;52.182;8.780;2023-02-28T03:49:02;5.47;;;2.38;;
36789;SDS011;22740;52.182;8.780;2023-02-28T03:55:09;5.70;;;1.92;;
36789;SDS011;22740;52.182;8.780;2023-02-28T04:07:51;3.58;;;1.73;;
36789;SDS011;22740;52.182;8.780;2023-02-28T04:13:55;4.07;;;1.57;;
36789;SDS011;22740;52.182;8.780;2023-02-28T04:19:57;3.63;;;1.70;;
36789;SDS011;22740;52.182;8.780;2023-02-28T04:25:58;6.40;;;1.90;;
36789;SDS011;22740;52.182;8.780;2023-02-28T04:32:01;3.30;;;1.48;;
36789;SDS011;22740;52.182;8.780;2023-02-28T04:38:04;5.50;;;2.20;;
36789;SDS011;22740;52.182;8.780;2023-02-28T04:44:06;4.13;;;1.50;;
36789;SDS011;22740;52.182;8.780;2023-02-28T04:50:08;3.40;;;1.35;;
36789;SDS011;22740;52.182;8.780;2023-02-28T04:56:11;2.90;;;1.60;;
36789;SDS011;22740;52.182;8.780;2023-02-28T05:02:14;3.38;;;1.75;;
36789;SDS011;22740;52.182;8.780;2023-02-28T05:08:16;2.28;;;1.40;;
36789;SDS011;22740;52.182;8.780;2023-02-28T05:14:18;2.67;;;1.40;;
36789;SDS011;22740;52.182;8.780;2023-02-28T05:20:20;4.75;;;1.55;;
36789;SDS011;22740;52.182;8.780;2023-02-28T05:26:22;4.28;;;1.60;;
36789;SDS011;22740;52.182;8.780;2023-02-28T05:32:25;3.28;;;1.70;;
36789;SDS011;22740;52.182;8.780;2023-02-28T05:38:27;5.28;;;1.80;;
36789;SDS011;22740;52.182;8.780;2023-02-28T05:44:29;6.70;;;2.17;;
36789;SDS011;22740;52.182;8.780;2023-02-28T05:50:30;8.68;;;2.90;;
36789;SDS011;22740;52.182;8.780;2023-02-28T05:56:33;5.32;;;3.03;;
36789;SDS011;22740;52.182;8.780;2023-02-28T06:02:40;7.97;;;3.97;;
36789;SDS011;22740;52.182;8.780;2023-02-28T06:08:42;5.28;;;3.25;;
36789;SDS011;22740;52.182;8.780;2023-02-28T06:14:45;8.23;;;3.05;;
36789;SDS011;22740;52.182;8.780;2023-02-28T06:20:56;6.03;;;3.20;;
36789;SDS011;22740;52.182;8.780;2023-02-28T06:26:58;7.45;;;3.30;;
36789;SDS011;22740;52.182;8.780;2023-02-28T06:33:06;6.40;;;3.30;;
36789;SDS011;22740;52.182;8.780;2023-02-28T06:39:08;5.35;;;2.60;;
36789;SDS011;22740;52.182;8.780;2023-02-28T06:45:10;7.68;;;2.33;;
36789;SDS011;22740;52.182;8.780;2023-02-28T06:51:14;6.07;;;2.60;;
36789;SDS011;22740;52.182;8.780;2023-02-28T06:57:17;6.28;;;2.63;;
36789;SDS011;22740;52.182;8.780;2023-02-28T07:03:19;5.70;;;2.58;;
36789;SDS011;22740;52.182;8.780;2023-02-28T07:09:21;4.55;;;2.58;;
36789;SDS011;22740;52.182;8.780;2023-02-28T07:15:23;4.07;;;2.15;;
36789;SDS011;22740;52.182;8.780;2023-02-28T07:21:24;6.80;;;2.45;;
36789;SDS011;22740;52.182;8.780;2023-02-28T07:27:26;5.38;;;2.38;;
36789;SDS011;22740;52.182;8.780;2023-02-28T07:33:28;3.33;;;1.90;;
36789;SDS011;22740;52.182;8.780;2023-02-28T07:39:30;4.65;;;1.70;;
36789;SDS011;22740;52.182;8.780;2023-02-28T07:45:32;3.80;;;1.80;;
36789;SDS011;22740;52.182;8.780;2023-02-28T07:51:35;4.40;;;2.20;;
36789;SDS011;22740;52.182;8.780;2023-02-28T07:57:37;3.10;;;1.52;;
36789;SDS011;22740;52.182;8.780;2023-02-28T08:03:39;4.25;;;1.38;;
36789;SDS011;22740;52.182;8.780;2023-02-28T08:09:41;2.97;;;1.25;;
36789;SDS011;22740;52.182;8.780;2023-02-28T08:15:44;5.00;;;2.20;;
36789;SDS011;22740;52.182;8.780;2023-02-28T08:21:47;3.60;;;2.05;;
36789;SDS011;22740;52.182;8.780;2023-02-28T08:27:50;4.25;;;2.60;;
36789;SDS011;22740;52.182;8.780;2023-02-28T08:33:53;5.72;;;2.30;;
36789;SDS011;22740;52.182;8.780;2023-02-28T08:45:59;4.22;;;1.90;;
36789;SDS011;22740;52.182;8.780;2023-02-28T08:52:02;3.53;;;1.80;;
36789;SDS011;22740;52.182;8.780;2023-02-28T08:58:04;3.20;;;1.70;;
36789;SDS011;22740;52.182;8.780;2023-02-28T09:04:05;3.22;;;1.33;;
36789;SDS011;22740;52.182;8.780;2023-02-28T09:10:09;3.33;;;1.88;;
36789;SDS011;22740;52.182;8.780;2023-02-28T09:16:13;4.60;;;1.70;;
36789;SDS011;22740;52.182;8.780;2023-02-28T09:22:17;3.95;;;1.50;;
36789;SDS011;22740;52.182;8.780;2023-02-28T09:28:19;4.18;;;1.60;;
36789;SDS011;22740;52.182;8.780;2023-02-28T09:34:21;4.78;;;1.63;;
36789;SDS011;22740;52.182;8.780;2023-02-28T09:40:24;4.45;;;1.65;;
36789;SDS011;22740;52.182;8.780;2023-02-28T09:46:28;2.50;;;1.50;;
36789;SDS011;22740;52.182;8.780;2023-02-28T09:52:36;4.43;;;2.15;;
36789;SDS011;22740;52.182;8.780;2023-02-28T09:58:55;3.90;;;1.80;;
36789;SDS011;22740;52.182;8.780;2023-02-28T10:04:59;8.63;;;1.77;;
36789;SDS011;22740;52.182;8.780;2023-02-28T10:11:07;3.20;;;1.55;;
36789;SDS011;22740;52.182;8.780;2023-02-28T10:17:19;4.20;;;1.75;;
36789;SDS011;22740;52.182;8.780;2023-02-28T10:23:30;3.60;;;1.70;;
36789;SDS011;22740;52.182;8.780;2023-02-28T10:29:36;6.00;;;2.03;;
36789;SDS011;22740;52.182;8.780;2023-02-28T10:35:38;4.20;;;1.67;;
36789;SDS011;22740;52.182;8.780;2023-02-28T10:41:42;3.22;;;1.25;;
36789;SDS011;22740;52.182;8.780;2023-02-28T10:47:55;2.30;;;1.13;;
36789;SDS011;22740;52.182;8.780;2023-02-28T10:53:57;3.50;;;1.10;;
36789;SDS011;22740;52.182;8.780;2023-02-28T11:00:36;2.60;;;1.30;;
36789;SDS011;22740;52.182;8.780;2023-02-28T11:06:34;1.95;;;0.90;;
36789;SDS011;22740;52.182;8.780;2023-02-28T11:12:37;2.15;;;0.98;;
36789;SDS011;22740;52.182;8.780;2023-02-28T11:18:53;3.40;;;1.20;;
36789;SDS011;22740;52.182;8.780;2023-02-28T11:24:57;4.67;;;1.20;;
36789;SDS011;22740;52.182;8.780;2023-02-28T11:37:09;1.97;;;1.17;;
36789;SDS011;22740;52.182;8.780;2023-02-28T11:56:38;2.63;;;1.20;;
36789;SDS011;22740;52.182;8.780;2023-02-28T12:03:00;2.08;;;1.00;;
36789;SDS011;22740;52.182;8.780;2023-02-28T12:09:34;2.58;;;1.00;;
36789;SDS011;22740;52.182;8.780;2023-02-28T12:16:12;3.03;;;1.27;;
36789;SDS011;22740;52.182;8.780;2023-02-28T12:22:32;2.20;;;1.00;;
36789;SDS011;22740;52.182;8.780;2023-02-28T12:28:45;2.72;;;0.95;;
36789;SDS011;22740;52.182;8.780;2023-02-28T12:34:52;3.28;;;1.15;;
36789;SDS011;22740;52.182;8.780;2023-02-28T12:41:00;2.10;;;0.95;;
36789;SDS011;22740;52.182;8.780;2023-02-28T12:47:17;4.65;;;1.30;;
36789;SDS011;22740;52.182;8.780;2023-02-28T12:59:34;2.65;;;1.20;;
36789;SDS011;22740;52.182;8.780;2023-02-28T13:11:52;2.72;;;1.15;;
36789;SDS011;22740;52.182;8.780;2023-02-28T13:17:59;2.85;;;1.20;;
36789;SDS011;22740;52.182;8.780;2023-02-28T13:24:02;4.63;;;1.60;;
36789;SDS011;22740;52.182;8.780;2023-02-28T13:36:59;3.45;;;1.30;;
36789;SDS011;22740;52.182;8.780;2023-02-28T13:43:24;5.63;;;1.60;;
36789;SDS011;22740;52.182;8.780;2023-02-28T13:56:27;4.95;;;1.30;;
36789;SDS011;22740;52.182;8.780;2023-02-28T14:03:11;3.65;;;1.38;;
36789;SDS011;22740;52.182;8.780;2023-02-28T14:09:26;1.98;;;1.10;;
36789;SDS011;22740;52.182;8.780;2023-02-28T14:15:43;3.85;;;1.27;;
36789;SDS011;22740;52.182;8.780;2023-02-28T14:22:00;2.53;;;1.10;;
36789;SDS011;22740;52.182;8.780;2023-02-28T14:41:04;3.45;;;1.23;;
36789;SDS011;22740;52.182;8.780;2023-02-28T14:47:14;3.08;;;1.60;;
36789;SDS011;22740;52.182;8.780;2023-02-28T14:53:18;3.00;;;1.52;;
36789;SDS011;22740;52.182;8.780;2023-02-28T15:05:30;5.30;;;1.30;;
36789;SDS011;22740;52.182;8.780;2023-02-28T15:11:34;3.03;;;1.45;;
36789;SDS011;22740;52.182;8.780;2023-02-28T15:17:36;6.38;;;1.98;;
36789;SDS011;22740;52.182;8.780;2023-02-28T15:23:38;5.57;;;1.92;;
36789;SDS011;22740;52.182;8.780;2023-02-28T15:29:48;5.68;;;1.88;;
36789;SDS011;22740;52.182;8.780;2023-02-28T15:36:13;3.80;;;1.77;;
36789;SDS011;22740;52.182;8.780;2023-02-28T15:42:19;5.90;;;1.58;;
36789;SDS011;22740;52.182;8.780;2023-02-28T15:48:27;3.10;;;1.40;;
36789;SDS011;22740;52.182;8.780;2023-02-28T15:54:32;4.30;;;1.65;;
36789;SDS011;22740;52.182;8.780;2023-02-28T16:00:36;3.83;;;1.80;;
36789;SDS011;22740;52.182;8.780;2023-02-28T16:18:44;3.42;;;1.60;;
36789;SDS011;22740;52.182;8.780;2023-02-28T16:24:46;3.10;;;1.70;;
36789;SDS011;22740;52.182;8.780;2023-02-28T16:30:50;4.15;;;1.75;;
36789;SDS011;22740;52.182;8.780;2023-02-28T16:42:56;4.95;;;1.77;;
36789;SDS011;22740;52.182;8.780;2023-02-28T16:49:00;3.40;;;1.80;;
36789;SDS011;22740;52.182;8.780;2023-02-28T16:55:02;5.88;;;2.08;;
36789;SDS011;22740;52.182;8.780;2023-02-28T17:01:04;4.15;;;2.03;;
36789;SDS011;22740;52.182;8.780;2023-02-28T17:07:09;5.68;;;2.70;;
36789;SDS011;22740;52.182;8.780;2023-02-28T17:13:14;4.00;;;1.70;;
36789;SDS011;22740;52.182;8.780;2023-02-28T17:19:16;9.07;;;2.22;;
36789;SDS011;22740;52.182;8.780;2023-02-28T17:25:18;5.15;;;2.22;;
36789;SDS011;22740;52.182;8.780;2023-02-28T17:31:21;4.05;;;2.42;;
36789;SDS011;22740;52.182;8.780;2023-02-28T17:37:27;4.72;;;2.72;;
36789;SDS011;22740;52.182;8.780;2023-02-28T17:43:29;8.60;;;2.40;;
36789;SDS011;22740;52.182;8.780;2023-02-28T17:49:31;5.95;;;2.10;;
36789;SDS011;22740;52.182;8.780;2023-02-28T17:55:34;5.05;;;2.40;;
36789;SDS011;22740;52.182;8.780;2023-02-28T18:01:37;5.28;;;2.45;;
36789;SDS011;22740;52.182;8.780;2023-02-28T18:07:39;4.80;;;2.45;;
36789;SDS011;22740;52.182;8.780;2023-02-28T18:13:42;7.10;;;2.75;;
36789;SDS011;22740;52.182;8.780;2023-02-28T18:19:52;5.78;;;2.65;;
36789;SDS011;22740;52.182;8.780;2023-02-28T18:25:53;5.95;;;2.72;;
36789;SDS011;22740;52.182;8.780;2023-02-28T18:31:55;7.90;;;2.80;;
36789;SDS011;22740;52.182;8.780;2023-02-28T18:37:57;6.85;;;2.92;;
36789;SDS011;22740;52.182;8.780;2023-02-28T18:44:00;7.00;;;2.50;;
36789;SDS011;22740;52.182;8.780;2023-02-28T18:50:14;5.75;;;3.20;;
36789;SDS011;22740;52.182;8.780;2023-02-28T18:56:16;6.63;;;2.67;;
36789;SDS011;22740;52.182;8.780;2023-02-28T19:02:20;4.85;;;2.38;;
36789;SDS011;22740;52.182;8.780;2023-02-28T19:08:22;6.97;;;2.72;;
36789;SDS011;22740;52.182;8.780;2023-02-28T19:14:24;4.28;;;2.50;;
36789;SDS011;22740;52.182;8.780;2023-02-28T19:20:26;7.07;;;3.25;;
36789;SDS011;22740;52.182;8.780;2023-02-28T19:26:28;6.20;;;2.70;;
36789;SDS011;22740;52.182;8.780;2023-02-28T19:32:30;5.80;;;2.85;;
36789;SDS011;22740;52.182;8.780;2023-02-28T19:38:32;8.48;;;3.28;;
36789;SDS011;22740;52.182;8.780;2023-02-28T19:44:34;7.10;;;3.30;;
36789;SDS011;22740;52.182;8.780;2023-02-28T19:50:36;6.70;;;3.92;;
36789;SDS011;22740;52.182;8.780;2023-02-28T19:56:38;5.30;;;3.17;;
36789;SDS011;22740;52.182;8.780;2023-02-28T20:02:40;8.05;;;3.25;;
36789;SDS011;22740;52.182;8.780;2023-02-28T20:08:44;8.95;;;3.80;;
36789;SDS011;22740;52.182;8.780;2023-02-28T20:14:46;6.57;;;3.30;;
36789;SDS011;22740;52.182;8.780;2023-02-28T20:20:47;8.10;;;3.30;;
36789;SDS011;22740;52.182;8.780;2023-02-28T20:26:49;7.43;;;3.25;;
36789;SDS011;22740;52.182;8.780;2023-02-28T20:32:52;7.03;;;4.05;;
36789;SDS011;22740;52.182;8.780;2023-02-28T20:38:54;8.65;;;3.78;;
36789;SDS011;22740;52.182;8.780;2023-02-28T20:44:57;8.10;;;4.78;;
36789;SDS011;22740;52.182;8.780;2023-02-28T20:50:59;15.07;;;7.10;;
36789;SDS011;22740;52.182;8.780;2023-02-28T20:57:01;28.55;;;10.68;;
36789;SDS011;22740;52.182;8.780;2023-02-28T21:03:03;12.15;;;5.72;;
36789;SDS011;22740;52.182;8.780;2023-02-28T21:09:05;14.48;;;5.97;;
36789;SDS011;22740;52.182;8.780;2023-02-28T21:15:08;17.02;;;6.47;;
36789;SDS011;22740;52.182;8.780;2023-02-28T21:21:11;7.03;;;3.38;;
36789;SDS011;22740;52.182;8.780;2023-02-28T21:33:16;7.32;;;3.55;;
36789;SDS011;22740;52.182;8.780;2023-02-28T21:39:19;8.68;;;3.33;;
36789;SDS011;22740;52.182;8.780;2023-02-28T21:45:26;7.20;;;3.80;;
36789;SDS011;22740;52.182;8.780;2023-02-28T21:51:29;7.53;;;3.42;;
36789;SDS011;22740;52.182;8.780;2023-02-28T21:57:31;7.00;;;3.38;;
36789;SDS011;22740;52.182;8.780;2023-02-28T22:03:36;10.77;;;3.90;;
36789;SDS011;22740;52.182;8.780;2023-02-28T22:09:38;5.95;;;3.80;;
36789;SDS011;22740;52.182;8.780;2023-02-28T22:15:40;7.43;;;3.22;;
36789;SDS011;22740;52.182;8.780;2023-02-28T22:21:41;7.28;;;4.00;;
36789;SDS011;22740;52.182;8.780;2023-02-28T22:27:45;6.47;;;3.17;;
36789;SDS011;22740;52.182;8.780;2023-02-28T22:33:48;7.63;;;3.90;;
36789;SDS011;22740;52.182;8.780;2023-02-28T22:39:50;6.60;;;3.22;;
36789;SDS011;22740;52.182;8.780;2023-02-28T22:45:52;6.53;;;3.58;;
36789;SDS011;22740;52.182;8.780;2023-02-28T22:51:54;8.43;;;3.38;;
36789;SDS011;22740;52.182;8.780;2023-02-28T22:57:56;6.95;;;3.78;;
36789;SDS011;22740;52.182;8.780;2023-02-28T23:03:58;9.95;;;3.33;;
36789;SDS011;22740;52.182;8.780;2023-02-28T23:10:03;9.35;;;4.07;;
36789;SDS011;22740;52.182;8.780;2023-02-28T23:16:09;8.75;;;4.32;;
36789;SDS011;22740;52.182;8.780;2023-02-28T23:22:11;7.18;;;3.92;;
36789;SDS011;22740;52.182;8.780;2023-02-28T23:28:12;8.45;;;4.57;;
36789;SDS011;22740;52.182;8.780;2023-02-28T23:34:14;7.45;;;3.97;;
36789;SDS011;22740;52.182;8.780;2023-02-28T23:40:17;6.65;;;3.50;;
36789;SDS011;22740;52.182;8.780;2023-02-28T23:46:19;9.13;;;3.95;;
36789;SDS011;22740;52.182;8.780;2023-02-28T23:52:22;9.75;;;4.72;;
36789;SDS011;22740;52.182;8.780;2023-02-28T23:58:24;8.60;;;4.97;;
